Time;durP1;ratioP1;P1;durP2;ratioP2;P2;SDS_P1;SDS_P2;PMS_P1;PMS_P2;Temp;Humidity;BMP_temperature;BMP_pressure;BME280_temperature;BME280_humidity;BME280_pressure;Samples;Min_cycle;Max_cycle;Signal;HPM_P1;HPM_P2
2021/10/21 00:01:41;;;;;;;7.33;4.60;;;14.90;99.90;;;;;;4955238;28;20242;-64
2021/10/21 00:04:06;;;;;;;7.17;4.83;;;14.90;99.90;;;;;;4955459;28;20765;-64
2021/10/21 00:06:32;;;;;;;4.97;4.27;;;14.90;99.90;;;;;;4956124;28;20204;-63
2021/10/21 00:09:01;;;;;;;5.10;4.60;;;14.80;99.90;;;;;;4954825;28;20195;-64
2021/10/21 00:11:27;;;;;;;5.90;4.73;;;14.80;99.90;;;;;;4958797;28;20223;-63
2021/10/21 00:13:53;;;;;;;6.13;4.77;;;14.90;99.90;;;;;;4961879;28;20598;-63
2021/10/21 00:16:18;;;;;;;4.90;4.50;;;14.90;99.90;;;;;;4958191;28;20222;-64
2021/10/21 00:18:49;;;;;;;5.90;5.30;;;14.90;99.90;;;;;;4962138;28;20652;-64
2021/10/21 00:21:17;;;;;;;5.40;4.90;;;14.90;99.90;;;;;;4957044;28;20613;-64
2021/10/21 00:23:48;;;;;;;6.60;4.90;;;15.00;99.90;;;;;;4954220;28;20677;-64
2021/10/21 00:26:14;;;;;;;5.97;4.93;;;15.00;99.90;;;;;;4958053;28;20641;-64
2021/10/21 00:28:39;;;;;;;6.20;5.60;;;15.00;99.90;;;;;;4955600;28;20606;-64
2021/10/21 00:31:06;;;;;;;8.37;4.80;;;15.10;99.90;;;;;;4953625;28;20242;-64
2021/10/21 00:33:32;;;;;;;6.00;5.40;;;15.00;99.90;;;;;;4951898;28;20187;-64
2021/10/21 00:35:58;;;;;;;8.23;4.77;;;15.10;99.90;;;;;;4955757;28;20654;-64
2021/10/21 00:38:24;;;;;;;8.00;5.23;;;15.10;99.90;;;;;;4960210;28;20619;-64
2021/10/21 00:40:50;;;;;;;6.50;5.17;;;15.10;99.90;;;;;;4956528;28;20243;-64
2021/10/21 00:43:16;;;;;;;7.63;4.90;;;15.10;99.90;;;;;;4962232;28;20771;-64
2021/10/21 00:45:49;;;;;;;5.40;4.90;;;15.10;99.90;;;;;;4954696;28;20627;-64
2021/10/21 00:48:15;;;;;;;5.43;4.83;;;15.10;99.90;;;;;;4957638;28;20582;-64
2021/10/21 00:50:41;;;;;;;5.10;4.60;;;15.10;99.90;;;;;;4957764;28;20638;-63
2021/10/21 00:53:10;;;;;;;8.63;5.33;;;15.10;99.90;;;;;;4959768;28;20607;-64
2021/10/21 00:55:35;;;;;;;6.00;4.80;;;15.10;99.90;;;;;;4959258;28;20214;-64
2021/10/21 00:58:04;;;;;;;5.60;5.10;;;15.10;99.90;;;;;;4975123;28;20607;-63
2021/10/21 01:00:33;;;;;;;5.93;4.73;;;15.10;99.90;;;;;;4960662;28;20245;-65
2021/10/21 01:02:59;;;;;;;6.30;5.00;;;15.10;99.90;;;;;;4958108;28;21068;-63
2021/10/21 01:05:25;;;;;;;5.80;5.20;;;15.10;99.90;;;;;;4968199;28;20647;-62
2021/10/21 01:07:51;;;;;;;6.30;5.07;;;15.10;99.90;;;;;;4973725;28;20543;-64
2021/10/21 01:10:19;;;;;;;8.43;5.77;;;15.10;99.90;;;;;;4959784;28;20306;-63
2021/10/21 01:12:45;;;;;;;5.70;5.23;;;15.10;99.90;;;;;;4975445;28;20674;-64
2021/10/21 01:15:21;;;;;;;5.77;5.27;;;15.10;99.90;;;;;;4959076;28;20614;-65
2021/10/21 01:17:48;;;;;;;5.70;5.20;;;15.10;99.90;;;;;;4962058;28;20205;-62
2021/10/21 01:20:16;;;;;;;7.30;5.47;;;15.10;99.90;;;;;;4954168;28;21005;-63
2021/10/21 01:22:42;;;;;;;5.93;5.43;;;15.00;99.90;;;;;;4954603;28;20683;-63
2021/10/21 01:25:12;;;;;;;5.53;5.03;;;15.00;99.90;;;;;;4957789;28;20634;-64
2021/10/21 01:27:40;;;;;;;6.30;5.70;;;15.10;99.90;;;;;;4957341;28;20924;-63
2021/10/21 01:30:23;;;;;;;7.20;5.80;;;15.00;99.90;;;;;;4959562;28;20702;-64
2021/10/21 01:32:54;;;;;;;9.83;5.13;;;15.00;99.90;;;;;;4972758;28;20641;-64
2021/10/21 01:35:22;;;;;;;5.63;5.17;;;14.90;99.90;;;;;;4962201;28;20627;-63
2021/10/21 01:37:51;;;;;;;6.13;5.27;;;14.90;99.90;;;;;;4960864;28;20688;-64
2021/10/21 01:40:29;;;;;;;5.90;5.17;;;14.90;99.90;;;;;;4958394;28;20936;-64
2021/10/21 01:42:55;;;;;;;5.90;5.27;;;14.90;99.90;;;;;;4959577;28;21225;-64
2021/10/21 01:45:22;;;;;;;5.33;4.83;;;14.70;99.90;;;;;;4959531;28;20695;-63
2021/10/21 01:47:48;;;;;;;5.70;5.13;;;14.90;99.90;;;;;;4960775;28;20210;-65
2021/10/21 01:50:17;;;;;;;5.97;5.43;;;14.90;99.90;;;;;;4957340;28;20680;-64
2021/10/21 01:52:49;;;;;;;6.10;5.43;;;14.90;99.90;;;;;;4956919;28;20664;-64
2021/10/21 01:55:16;;;;;;;5.47;5.07;;;14.90;99.90;;;;;;4959594;28;20586;-63
2021/10/21 01:57:42;;;;;;;7.03;6.23;;;14.90;99.90;;;;;;4956039;28;21154;-63
2021/10/21 02:00:15;;;;;;;5.83;5.33;;;14.80;99.90;;;;;;4960705;28;20692;-64
2021/10/21 02:02:49;;;;;;;5.87;5.30;;;14.80;99.90;;;;;;4956225;28;20697;-64
2021/10/21 02:05:18;;;;;;;5.20;4.70;;;14.80;99.90;;;;;;4957012;28;21141;-63
2021/10/21 02:07:44;;;;;;;5.73;5.23;;;14.70;99.90;;;;;;4959030;28;20618;-64
2021/10/21 02:10:12;;;;;;;5.37;4.90;;;14.80;99.90;;;;;;4960994;28;20622;-63
2021/10/21 02:12:38;;;;;;;6.73;5.30;;;14.80;99.90;;;;;;4959727;28;20403;-64
2021/10/21 02:15:04;;;;;;;5.70;5.10;;;14.90;99.90;;;;;;4956293;28;20710;-64
2021/10/21 02:17:30;;;;;;;6.57;5.77;;;14.90;99.90;;;;;;4958467;28;20191;-64
2021/10/21 02:19:58;;;;;;;5.87;5.40;;;14.90;99.90;;;;;;4971184;28;20642;-64
2021/10/21 02:22:27;;;;;;;5.30;4.80;;;14.90;99.90;;;;;;4958538;28;20647;-64
2021/10/21 02:24:55;;;;;;;5.67;5.07;;;14.80;99.90;;;;;;4952637;28;20638;-62
2021/10/21 02:27:21;;;;;;;6.10;5.07;;;14.80;99.90;;;;;;4958936;28;20637;-63
2021/10/21 02:29:47;;;;;;;5.67;5.10;;;14.80;99.90;;;;;;4960539;28;20613;-64
2021/10/21 02:32:15;;;;;;;5.60;5.00;;;14.90;99.90;;;;;;4957724;28;20234;-64
2021/10/21 02:34:40;;;;;;;6.27;5.50;;;14.80;99.90;;;;;;4958071;28;20614;-64
2021/10/21 02:37:06;;;;;;;5.23;4.83;;;14.80;99.90;;;;;;4958714;28;20653;-64
2021/10/21 02:39:35;;;;;;;5.23;4.73;;;14.80;99.90;;;;;;4957700;28;20211;-64
2021/10/21 02:42:01;;;;;;;5.40;4.87;;;14.80;99.90;;;;;;4942827;28;20318;-64
2021/10/21 02:44:29;;;;;;;5.57;5.00;;;14.80;99.90;;;;;;4959413;28;21297;-64
2021/10/21 02:46:54;;;;;;;5.57;4.73;;;14.70;99.90;;;;;;4958356;28;20722;-64
2021/10/21 02:49:20;;;;;;;6.10;5.00;;;14.70;99.90;;;;;;4957402;28;20614;-63
2021/10/21 02:51:51;;;;;;;6.43;4.73;;;14.70;99.90;;;;;;4957332;28;20227;-64
2021/10/21 02:54:16;;;;;;;5.20;4.70;;;14.70;99.90;;;;;;4958293;28;20242;-64
2021/10/21 02:56:42;;;;;;;4.93;4.40;;;14.70;99.90;;;;;;4957076;28;20703;-64
2021/10/21 02:59:08;;;;;;;5.13;4.47;;;14.70;99.90;;;;;;4959987;28;20203;-64
2021/10/21 03:01:35;;;;;;;5.17;4.67;;;14.70;99.90;;;;;;4956291;28;20222;-65
2021/10/21 03:04:01;;;;;;;4.77;4.33;;;14.70;99.90;;;;;;4956164;28;20195;-64
2021/10/21 03:06:27;;;;;;;6.00;4.53;;;14.70;99.90;;;;;;4956815;28;20704;-64
2021/10/21 03:08:52;;;;;;;5.30;4.57;;;14.70;99.90;;;;;;4957754;28;20183;-64
2021/10/21 03:11:18;;;;;;;5.67;4.40;;;14.80;99.90;;;;;;4964237;28;20664;-64
2021/10/21 03:13:43;;;;;;;4.90;4.40;;;14.70;99.90;;;;;;4959995;28;20222;-64
2021/10/21 03:16:09;;;;;;;5.53;4.83;;;14.70;99.90;;;;;;4954318;28;20298;-64
2021/10/21 03:18:45;;;;;;;5.17;4.77;;;14.70;99.90;;;;;;4957767;28;20281;-62
2021/10/21 03:21:15;;;;;;;5.27;4.77;;;14.70;99.90;;;;;;4958544;28;20219;-64
2021/10/21 03:23:41;;;;;;;5.27;4.77;;;14.80;99.90;;;;;;4951532;28;20688;-64
2021/10/21 03:26:08;;;;;;;6.00;4.40;;;14.80;99.90;;;;;;4958862;28;20635;-64
2021/10/21 03:28:35;;;;;;;5.27;4.43;;;14.80;99.90;;;;;;4955108;28;20191;-64
2021/10/21 03:31:03;;;;;;;5.23;4.30;;;14.70;99.90;;;;;;4957473;28;20693;-64
2021/10/21 03:33:31;;;;;;;6.93;4.90;;;14.70;99.90;;;;;;4954187;28;20634;-65
2021/10/21 03:35:57;;;;;;;5.50;5.00;;;14.60;99.90;;;;;;4958456;28;20770;-64
2021/10/21 03:38:26;;;;;;;4.93;4.43;;;14.60;99.90;;;;;;4959367;28;20681;-63
2021/10/21 03:40:53;;;;;;;6.60;5.70;;;14.60;99.90;;;;;;4956959;28;20638;-64
2021/10/21 03:43:26;;;;;;;6.43;5.53;;;14.50;99.90;;;;;;4957297;28;20721;-65
2021/10/21 03:45:54;;;;;;;7.80;6.30;;;14.50;99.90;;;;;;4954465;28;21006;-64
2021/10/21 03:48:25;;;;;;;6.93;6.23;;;14.50;99.90;;;;;;4958425;28;20634;-64
2021/10/21 03:50:51;;;;;;;9.80;5.63;;;14.50;99.90;;;;;;4952871;28;20634;-63
2021/10/21 03:53:19;;;;;;;6.37;5.77;;;14.50;99.90;;;;;;4955630;28;20634;-64
2021/10/21 03:55:54;;;;;;;6.67;6.07;;;14.50;99.90;;;;;;4956733;28;20226;-64
2021/10/21 03:58:22;;;;;;;7.17;5.80;;;14.40;99.90;;;;;;4958697;28;20667;-63
2021/10/21 04:00:48;;;;;;;6.60;6.03;;;14.50;99.90;;;;;;4957652;28;20667;-64
2021/10/21 04:03:14;;;;;;;6.60;5.40;;;14.40;99.90;;;;;;4967708;28;20638;-64
2021/10/21 04:05:39;;;;;;;6.77;6.07;;;14.50;99.90;;;;;;4963872;28;20203;-64
2021/10/21 04:08:05;;;;;;;6.90;6.30;;;14.40;99.90;;;;;;4969051;28;20990;-64
2021/10/21 04:10:33;;;;;;;7.70;6.17;;;14.50;99.90;;;;;;4960715;28;20302;-63
2021/10/21 04:13:01;;;;;;;7.37;6.67;;;14.60;99.90;;;;;;4957870;28;20619;-64
2021/10/21 04:15:29;;;;;;;11.43;7.40;;;14.60;99.90;;;;;;4956775;28;20635;-64
2021/10/21 04:17:55;;;;;;;7.03;6.33;;;14.60;99.90;;;;;;4955040;28;20717;-64
2021/10/21 04:20:21;;;;;;;6.57;5.87;;;14.60;99.90;;;;;;4957218;28;21080;-64
2021/10/21 04:22:47;;;;;;;7.33;6.53;;;14.70;99.90;;;;;;4954935;28;20627;-64
2021/10/21 04:25:13;;;;;;;5.00;4.60;;;14.60;99.90;;;;;;4955806;28;20624;-64
2021/10/21 04:27:41;;;;;;;4.47;3.60;;;14.50;99.90;;;;;;4959405;28;20611;-64
2021/10/21 04:30:07;;;;;;;2.93;2.40;;;14.50;99.90;;;;;;4960880;28;21236;-64
2021/10/21 04:32:36;;;;;;;2.03;1.90;;;14.30;99.90;;;;;;4958546;28;21710;-65
2021/10/21 04:35:01;;;;;;;2.87;1.57;;;14.30;99.90;;;;;;4955120;28;20738;-64
2021/10/21 04:37:27;;;;;;;2.20;2.00;;;14.10;99.90;;;;;;4960393;28;21083;-64
2021/10/21 04:39:56;;;;;;;3.00;1.90;;;14.10;99.90;;;;;;4960888;28;20192;-64
2021/10/21 04:42:21;;;;;;;3.10;2.10;;;14.00;99.90;;;;;;4960663;28;20211;-64
2021/10/21 04:44:52;;;;;;;2.20;2.00;;;13.90;99.90;;;;;;4958721;28;20642;-64
2021/10/21 04:47:18;;;;;;;2.30;2.10;;;13.90;99.90;;;;;;4958549;28;20212;-63
2021/10/21 04:49:44;;;;;;;2.47;2.27;;;13.80;99.90;;;;;;4958861;28;20665;-64
2021/10/21 04:52:13;;;;;;;2.83;2.10;;;13.80;99.90;;;;;;4959775;28;20214;-64
2021/10/21 04:54:42;;;;;;;3.53;2.80;;;13.70;99.90;;;;;;4959082;28;21205;-64
2021/10/21 04:57:07;;;;;;;2.47;2.27;;;13.60;99.90;;;;;;4954528;28;20662;-64
2021/10/21 04:59:33;;;;;;;3.83;2.50;;;13.70;99.90;;;;;;4958268;28;21040;-63
2021/10/21 05:02:01;;;;;;;3.37;2.33;;;13.70;99.90;;;;;;4959595;28;20250;-63
2021/10/21 05:04:29;;;;;;;2.87;2.63;;;13.70;99.90;;;;;;4959837;28;20207;-64
2021/10/21 05:06:55;;;;;;;2.63;2.30;;;13.60;99.90;;;;;;4959369;28;20692;-64
2021/10/21 05:09:23;;;;;;;4.00;2.40;;;13.60;99.90;;;;;;4954345;28;20622;-63
2021/10/21 05:11:48;;;;;;;2.57;2.37;;;13.60;99.90;;;;;;4945379;28;20230;-64
2021/10/21 05:14:14;;;;;;;2.80;2.23;;;13.60;99.90;;;;;;4949345;28;20618;-64
2021/10/21 05:16:39;;;;;;;2.20;1.40;;;13.70;99.90;;;;;;4948610;28;20298;-62
2021/10/21 05:19:05;;;;;;;2.00;1.80;;;13.60;99.90;;;;;;4961274;28;20218;-64
2021/10/21 05:21:30;;;;;;;1.70;1.60;;;13.60;99.90;;;;;;4957800;28;20750;-64
2021/10/21 05:23:56;;;;;;;2.90;1.80;;;13.60;99.90;;;;;;4945697;28;20665;-64
2021/10/21 05:26:22;;;;;;;2.50;1.50;;;13.50;99.90;;;;;;4953300;28;20238;-64
2021/10/21 05:28:47;;;;;;;2.00;1.70;;;13.40;99.90;;;;;;4956138;28;20199;-62
2021/10/21 05:31:13;;;;;;;4.20;1.63;;;13.40;99.90;;;;;;4956293;28;20704;-63
2021/10/21 05:33:38;;;;;;;1.83;1.70;;;13.30;99.90;;;;;;4953773;28;20203;-63
2021/10/21 05:36:07;;;;;;;1.93;1.70;;;13.30;99.90;;;;;;4956092;28;20220;-63
2021/10/21 05:38:33;;;;;;;2.53;1.50;;;13.20;99.90;;;;;;4950258;28;20198;-62
2021/10/21 05:40:59;;;;;;;3.57;1.63;;;13.20;99.90;;;;;;4955631;28;20638;-62
2021/10/21 05:43:25;;;;;;;2.07;1.40;;;13.20;99.90;;;;;;4970058;28;20877;-64
2021/10/21 05:45:50;;;;;;;2.50;1.70;;;13.20;99.90;;;;;;4956579;28;20646;-63
2021/10/21 05:48:16;;;;;;;2.63;1.60;;;13.20;99.90;;;;;;4956518;28;20194;-64
2021/10/21 05:50:43;;;;;;;4.07;2.00;;;13.20;99.90;;;;;;4975739;28;20222;-63
2021/10/21 05:53:09;;;;;;;2.50;1.60;;;13.20;99.90;;;;;;4955518;28;20195;-63
2021/10/21 05:55:34;;;;;;;2.53;1.43;;;13.20;99.90;;;;;;4959098;28;20669;-63
2021/10/21 05:58:03;;;;;;;2.43;1.63;;;13.20;99.90;;;;;;4956871;28;20675;-63
2021/10/21 06:00:29;;;;;;;2.17;1.80;;;13.20;99.90;;;;;;4955723;28;20281;-63
2021/10/21 06:02:54;;;;;;;2.00;1.60;;;13.20;99.90;;;;;;4968722;28;21045;-63
2021/10/21 06:05:22;;;;;;;2.37;1.70;;;13.20;99.90;;;;;;4961376;28;20270;-63
2021/10/21 06:07:49;;;;;;;1.53;1.43;;;13.10;99.90;;;;;;4956810;28;20190;-63
2021/10/21 06:10:14;;;;;;;3.60;1.83;;;13.10;99.90;;;;;;4953876;28;20666;-63
2021/10/21 06:12:40;;;;;;;3.30;1.90;;;13.10;99.90;;;;;;4957663;28;20646;-63
2021/10/21 06:15:06;;;;;;;2.47;1.90;;;13.20;99.90;;;;;;4960108;28;20196;-61
2021/10/21 06:17:31;;;;;;;1.50;1.37;;;13.20;99.90;;;;;;4956770;28;20191;-63
2021/10/21 06:19:57;;;;;;;3.80;2.40;;;13.20;99.90;;;;;;4969228;28;21161;-63
2021/10/21 06:22:22;;;;;;;5.60;2.10;;;13.20;99.90;;;;;;4955151;28;20241;-63
2021/10/21 06:24:48;;;;;;;2.27;1.90;;;13.20;99.90;;;;;;4952837;28;20335;-62
2021/10/21 06:27:14;;;;;;;2.77;1.87;;;13.20;99.90;;;;;;4953963;28;20211;-63
2021/10/21 06:29:40;;;;;;;2.40;1.70;;;13.20;99.90;;;;;;4957936;28;20217;-64
2021/10/21 06:32:07;;;;;;;1.97;1.87;;;13.10;99.90;;;;;;4955372;28;20694;-63
2021/10/21 06:34:34;;;;;;;3.87;1.50;;;13.10;99.90;;;;;;4955459;28;20619;-64
2021/10/21 06:37:00;;;;;;;2.10;1.53;;;13.20;99.90;;;;;;4972453;28;20705;-63
2021/10/21 06:39:25;;;;;;;1.93;1.73;;;13.20;99.90;;;;;;4960286;28;20618;-64
2021/10/21 06:41:51;;;;;;;2.33;2.00;;;13.20;99.90;;;;;;4959174;28;20306;-63
2021/10/21 06:44:17;;;;;;;2.57;1.50;;;13.20;99.90;;;;;;4956081;28;20206;-63
2021/10/21 06:46:42;;;;;;;4.77;2.00;;;13.10;99.90;;;;;;4957837;28;20208;-63
2021/10/21 06:49:08;;;;;;;1.80;1.43;;;13.00;99.90;;;;;;4955535;28;20196;-63
2021/10/21 06:51:34;;;;;;;3.80;1.60;;;12.90;99.90;;;;;;4955064;28;20980;-63
2021/10/21 06:54:00;;;;;;;2.53;1.43;;;12.90;99.90;;;;;;4957978;28;20196;-62
2021/10/21 06:56:25;;;;;;;3.33;1.93;;;12.80;99.90;;;;;;4956496;28;20238;-63
2021/10/21 06:58:51;;;;;;;2.20;1.73;;;12.80;99.90;;;;;;4955506;28;20214;-62
2021/10/21 07:01:17;;;;;;;3.07;1.93;;;12.80;99.90;;;;;;4958020;28;20707;-63
2021/10/21 07:03:42;;;;;;;2.30;1.43;;;12.80;99.90;;;;;;4956096;28;20230;-64
2021/10/21 07:06:08;;;;;;;2.97;1.60;;;12.80;99.90;;;;;;4954895;28;20264;-64
2021/10/21 07:08:33;;;;;;;3.03;1.90;;;12.80;99.90;;;;;;4954136;28;20191;-63
2021/10/21 07:11:01;;;;;;;1.97;1.77;;;12.70;99.90;;;;;;4955387;28;20268;-64
2021/10/21 07:13:27;;;;;;;2.80;1.80;;;12.70;99.90;;;;;;4957159;28;20202;-63
2021/10/21 07:15:53;;;;;;;2.73;2.00;;;12.70;99.90;;;;;;4956928;28;20653;-62
2021/10/21 07:18:18;;;;;;;2.60;1.47;;;12.60;99.90;;;;;;4953352;28;20202;-62
2021/10/21 07:20:44;;;;;;;2.43;1.70;;;12.70;99.90;;;;;;4952140;28;20231;-63
2021/10/21 07:23:09;;;;;;;1.30;1.20;;;12.60;99.90;;;;;;4956104;28;20246;-63
2021/10/21 07:25:35;;;;;;;1.57;1.40;;;12.60;99.90;;;;;;4971079;28;20293;-62
2021/10/21 07:28:02;;;;;;;1.83;1.53;;;12.60;99.90;;;;;;4954430;28;20179;-63
2021/10/21 07:30:28;;;;;;;1.50;1.40;;;12.60;99.90;;;;;;4954939;28;20233;-63
2021/10/21 07:32:55;;;;;;;2.30;1.37;;;12.50;99.90;;;;;;4954645;28;20618;-64
2021/10/21 07:35:21;;;;;;;1.23;1.13;;;12.50;99.90;;;;;;4954535;28;20697;-63
2021/10/21 07:37:47;;;;;;;2.27;1.00;;;12.50;99.90;;;;;;4956699;28;20634;-63
2021/10/21 07:40:12;;;;;;;1.73;1.10;;;12.50;99.90;;;;;;4955952;28;20647;-64
2021/10/21 07:42:39;;;;;;;1.73;0.90;;;12.40;99.90;;;;;;4970318;28;20199;-63
2021/10/21 07:45:07;;;;;;;3.63;0.90;;;12.30;99.90;;;;;;4950883;28;20223;-63
2021/10/21 07:47:32;;;;;;;1.13;0.80;;;12.30;99.90;;;;;;4955091;28;20624;-64
2021/10/21 07:49:58;;;;;;;1.93;0.70;;;12.30;99.90;;;;;;4955593;28;21124;-64
2021/10/21 07:52:24;;;;;;;1.47;0.90;;;12.30;99.90;;;;;;4957148;28;20758;-63
2021/10/21 07:54:49;;;;;;;1.07;0.90;;;12.30;99.90;;;;;;4956599;28;20203;-63
2021/10/21 07:57:18;;;;;;;1.10;1.00;;;12.30;99.90;;;;;;4959496;28;20217;-64
2021/10/21 07:59:44;;;;;;;1.27;1.00;;;12.20;99.90;;;;;;4975123;28;20261;-64
2021/10/21 08:02:09;;;;;;;1.00;0.90;;;12.10;99.90;;;;;;4953961;28;20643;-64
2021/10/21 08:04:35;;;;;;;3.23;1.30;;;12.10;99.90;;;;;;4953907;28;20305;-63
2021/10/21 08:07:02;;;;;;;1.07;1.00;;;12.20;99.90;;;;;;4974238;28;20219;-62
2021/10/21 08:09:30;;;;;;;0.90;0.90;;;12.20;99.90;;;;;;4958634;28;20660;-62
2021/10/21 08:11:56;;;;;;;1.07;0.97;;;12.10;99.90;;;;;;4960244;28;20626;-64
2021/10/21 08:14:22;;;;;;;0.80;0.80;;;12.20;99.90;;;;;;4959917;28;20625;-62
2021/10/21 08:16:50;;;;;;;0.80;0.80;;;12.10;99.90;;;;;;4969995;28;20666;-64
2021/10/21 08:19:16;;;;;;;0.60;0.60;;;12.10;99.90;;;;;;4972440;28;20213;-63
2021/10/21 08:21:41;;;;;;;1.27;0.77;;;12.10;99.90;;;;;;4954857;28;20648;-61
2021/10/21 08:24:08;;;;;;;1.00;0.90;;;12.20;99.90;;;;;;4955727;28;20220;-62
2021/10/21 08:26:34;;;;;;;0.60;0.60;;;12.10;99.90;;;;;;4972716;28;20221;-63
2021/10/21 08:29:01;;;;;;;1.20;1.10;;;12.10;99.90;;;;;;4956451;28;20614;-62
2021/10/21 08:31:27;;;;;;;0.60;0.60;;;12.10;99.90;;;;;;4955737;28;20626;-62
2021/10/21 08:33:52;;;;;;;0.70;0.60;;;12.00;99.90;;;;;;4959173;28;20674;-62
2021/10/21 08:36:19;;;;;;;1.40;1.30;;;12.00;99.90;;;;;;4959151;28;20697;-64
2021/10/21 08:38:45;;;;;;;1.90;0.90;;;12.00;99.90;;;;;;4961861;28;20250;-63
2021/10/21 08:41:15;;;;;;;1.20;0.90;;;12.00;99.90;;;;;;4957401;28;20662;-61
2021/10/21 08:43:41;;;;;;;1.20;0.70;;;12.00;99.90;;;;;;4951915;28;20218;-64
2021/10/21 08:46:07;;;;;;;0.90;0.60;;;11.90;99.90;;;;;;4952109;28;21225;-63
2021/10/21 08:48:35;;;;;;;0.67;0.67;;;12.00;99.90;;;;;;4957632;28;20626;-63
2021/10/21 08:51:05;;;;;;;2.00;0.80;;;11.90;99.90;;;;;;4961083;28;21043;-63
2021/10/21 08:53:32;;;;;;;0.90;0.90;;;11.90;99.90;;;;;;4969688;28;20631;-62
2021/10/21 08:55:59;;;;;;;1.33;0.80;;;11.90;99.90;;;;;;4958754;28;20657;-63
2021/10/21 08:58:26;;;;;;;0.70;0.70;;;11.90;99.90;;;;;;4958125;28;20632;-63
2021/10/21 09:00:58;;;;;;;0.77;0.57;;;11.90;99.90;;;;;;4959008;28;20742;-63
2021/10/21 09:09:03;;;;;;;2.00;0.90;;;11.80;99.90;;;;;;4959571;28;20594;-63
2021/10/21 09:11:28;;;;;;;1.10;0.90;;;11.80;99.90;;;;;;4958619;28;20639;-62
2021/10/21 09:14:14;;;;;;;2.00;0.97;;;11.80;99.90;;;;;;4956200;28;20751;-64
2021/10/21 09:16:57;;;;;;;1.90;0.93;;;11.90;99.90;;;;;;4961549;28;20246;-62
2021/10/21 09:19:26;;;;;;;1.07;0.83;;;11.90;99.90;;;;;;4958774;28;20637;-63
2021/10/21 09:21:52;;;;;;;2.37;1.10;;;11.90;99.90;;;;;;4962838;28;20728;-66
2021/10/21 09:24:31;;;;;;;2.07;1.00;;;11.90;99.90;;;;;;4954246;28;20758;-63
2021/10/21 09:27:09;;;;;;;2.13;0.90;;;11.90;99.90;;;;;;4957224;28;20207;-64
2021/10/21 09:29:37;;;;;;;6.27;1.57;;;12.00;99.90;;;;;;4955943;28;20605;-63
2021/10/21 09:32:11;;;;;;;2.53;1.00;;;12.00;99.90;;;;;;4958451;28;21045;-63
2021/10/21 09:34:44;;;;;;;3.00;1.60;;;11.90;99.90;;;;;;4973649;28;20618;-64
2021/10/21 09:37:12;;;;;;;5.73;1.20;;;12.00;99.90;;;;;;4960848;28;20659;-63
2021/10/21 09:39:43;;;;;;;2.80;1.30;;;12.00;99.90;;;;;;4960983;28;20677;-65
2021/10/21 09:42:10;;;;;;;3.57;0.90;;;12.00;99.90;;;;;;4959527;28;20650;-63
2021/10/21 09:44:36;;;;;;;3.20;1.40;;;12.00;99.90;;;;;;4969073;28;20712;-63
2021/10/21 09:47:20;;;;;;;3.80;1.53;;;12.00;99.90;;;;;;4955869;28;20642;-64
2021/10/21 09:49:47;;;;;;;3.47;1.30;;;12.00;99.90;;;;;;4958206;28;20269;-64
2021/10/21 09:52:18;;;;;;;1.33;0.80;;;12.00;99.90;;;;;;4956329;28;20712;-63
2021/10/21 09:54:45;;;;;;;6.13;1.47;;;12.10;99.90;;;;;;4954754;28;20741;-64
2021/10/21 09:57:18;;;;;;;2.73;1.40;;;12.10;99.90;;;;;;4960302;28;21252;-63
2021/10/21 10:00:03;;;;;;;7.93;1.60;;;12.10;99.90;;;;;;4960372;28;20669;-63
2021/10/21 10:02:31;;;;;;;5.00;1.80;;;12.10;99.90;;;;;;4958509;28;20658;-63
2021/10/21 10:05:01;;;;;;;4.10;1.40;;;12.00;99.90;;;;;;4952900;28;21191;-62
2021/10/21 10:07:26;;;;;;;3.33;0.97;;;12.00;99.90;;;;;;4958663;28;20633;-64
2021/10/21 10:09:58;;;;;;;3.33;1.17;;;12.00;99.90;;;;;;4954703;28;20615;-63
2021/10/21 10:12:24;;;;;;;2.10;0.87;;;12.00;99.90;;;;;;4955298;28;20223;-63
2021/10/21 10:14:50;;;;;;;3.27;1.20;;;11.90;99.90;;;;;;4958078;28;20607;-63
2021/10/21 10:17:16;;;;;;;2.80;1.10;;;11.90;99.90;;;;;;4956677;28;20654;-63
2021/10/21 10:19:47;;;;;;;1.40;1.10;;;11.90;99.90;;;;;;4956308;28;20214;-62
2021/10/21 10:22:32;;;;;;;3.30;1.63;;;11.80;99.90;;;;;;4968784;28;20718;-63
2021/10/21 10:24:58;;;;;;;2.60;1.00;;;11.80;99.90;;;;;;4955928;28;20659;-63
2021/10/21 10:27:29;;;;;;;3.00;0.90;;;11.70;99.90;;;;;;4957045;28;21229;-63
2021/10/21 10:29:57;;;;;;;3.50;1.07;;;11.80;99.90;;;;;;4950729;28;20619;-63
2021/10/21 10:32:34;;;;;;;2.30;1.00;;;11.90;99.90;;;;;;4953015;28;21183;-63
2021/10/21 10:35:08;;;;;;;3.50;1.73;;;11.90;99.90;;;;;;4960184;28;20622;-63
2021/10/21 10:37:52;;;;;;;5.03;1.07;;;11.90;99.90;;;;;;4967692;28;20629;-63
2021/10/21 10:40:39;;;;;;;3.43;1.13;;;11.90;99.90;;;;;;4965678;28;20638;-63
2021/10/21 10:43:05;;;;;;;3.33;1.00;;;12.00;99.90;;;;;;4966919;28;20754;-63
2021/10/21 10:45:42;;;;;;;1.87;1.20;;;12.00;99.90;;;;;;4960560;28;20650;-62
2021/10/21 10:48:08;;;;;;;3.20;1.30;;;12.10;99.90;;;;;;4958667;28;20605;-63
2021/10/21 10:50:34;;;;;;;8.20;1.40;;;12.20;99.90;;;;;;4959391;28;20625;-63
2021/10/21 10:53:01;;;;;;;1.90;1.00;;;12.30;99.90;;;;;;4976698;28;20604;-63
2021/10/21 10:55:37;;;;;;;5.07;1.43;;;12.40;99.90;;;;;;4952570;28;20565;-64
2021/10/21 10:58:03;;;;;;;4.47;1.80;;;12.40;99.90;;;;;;4957237;28;20617;-63
2021/10/21 11:00:39;;;;;;;3.73;1.50;;;12.50;99.90;;;;;;4957600;28;20643;-64
2021/10/21 11:03:08;;;;;;;6.00;1.30;;;12.50;99.90;;;;;;4955561;28;20641;-61
2021/10/21 11:05:42;;;;;;;3.90;1.03;;;12.50;99.90;;;;;;4951882;28;20745;-62
2021/10/21 11:08:08;;;;;;;4.20;1.30;;;12.50;99.90;;;;;;4958398;28;20605;-63
2021/10/21 11:10:38;;;;;;;5.13;1.70;;;12.50;99.90;;;;;;4957695;28;20618;-63
2021/10/21 11:13:23;;;;;;;5.13;1.33;;;12.50;99.90;;;;;;4953654;28;20654;-63
2021/10/21 11:15:51;;;;;;;4.70;1.43;;;12.50;99.90;;;;;;4956650;28;20701;-62
2021/10/21 11:18:49;;;;;;;4.50;1.83;;;12.50;99.90;;;;;;4961845;28;20686;-63
2021/10/21 11:21:47;;;;;;;6.03;2.30;;;12.40;99.90;;;;;;4942834;28;21102;-64
2021/10/21 11:27:34;;;;;;;4.63;1.50;;;12.50;99.90;;;;;;4956701;28;20657;-63
2021/10/21 11:30:06;;;;;;;6.47;1.80;;;12.50;99.90;;;;;;4950996;28;20623;-63
2021/10/21 11:32:33;;;;;;;5.60;1.57;;;12.50;99.90;;;;;;4956616;28;20634;-63
2021/10/21 11:35:03;;;;;;;5.50;1.40;;;12.60;99.90;;;;;;4969513;28;20611;-63
2021/10/21 11:37:33;;;;;;;4.13;1.30;;;12.60;99.90;;;;;;4970311;28;20626;-62
2021/10/21 11:39:59;;;;;;;5.20;1.60;;;12.60;99.90;;;;;;4955099;28;20626;-63
2021/10/21 11:42:27;;;;;;;6.00;1.57;;;12.60;99.90;;;;;;4954185;28;20626;-62
2021/10/21 11:45:03;;;;;;;7.57;3.33;;;12.50;99.90;;;;;;4952004;28;20203;-63
2021/10/21 11:47:29;;;;;;;6.00;1.57;;;12.50;99.90;;;;;;4953265;28;20659;-62
2021/10/21 11:49:56;;;;;;;4.77;1.40;;;12.50;99.90;;;;;;4953063;28;21144;-62
2021/10/21 11:52:21;;;;;;;4.77;1.50;;;12.60;99.90;;;;;;4951861;28;20184;-63
2021/10/21 11:54:47;;;;;;;6.40;1.60;;;13.20;99.90;;;;;;4956116;28;20611;-63
2021/10/21 11:57:13;;;;;;;4.10;1.30;;;14.30;99.90;;;;;;4952454;28;20215;-62
2021/10/21 11:59:40;;;;;;;3.37;1.40;;;17.00;99.90;;;;;;4953624;28;20214;-64
2021/10/21 12:02:13;;;;;;;2.87;1.50;;;20.60;99.90;;;;;;4954361;28;20225;-65
2021/10/21 12:04:42;;;;;;;2.87;1.17;;;23.90;99.90;;;;;;4953792;28;21170;-64
2021/10/21 12:07:10;;;;;;;2.87;1.17;;;26.00;99.90;;;;;;4954494;28;20654;-64
2021/10/21 12:09:38;;;;;;;1.90;0.93;;;26.70;99.90;;;;;;4957535;28;20607;-64
2021/10/21 12:12:05;;;;;;;2.30;1.00;;;28.60;99.90;;;;;;4956466;28;20626;-64
2021/10/21 12:14:33;;;;;;;2.03;0.87;;;30.00;95.00;;;;;;4968882;28;20672;-63
2021/10/21 12:16:58;;;;;;;1.93;1.00;;;29.50;91.20;;;;;;4952113;28;20693;-64
2021/10/21 12:19:24;;;;;;;3.97;1.10;;;28.10;90.20;;;;;;4949288;28;20709;-64
2021/10/21 12:21:51;;;;;;;2.23;1.00;;;26.30;92.00;;;;;;4950373;28;20703;-63
2021/10/21 12:24:22;;;;;;;2.57;1.20;;;24.20;94.70;;;;;;4948744;28;21077;-66
2021/10/21 12:27:02;;;;;;;3.20;1.03;;;22.70;98.20;;;;;;4955153;28;20642;-64
2021/10/21 12:29:42;;;;;;;3.37;1.33;;;21.30;99.90;;;;;;4950975;28;20622;-64
2021/10/21 12:32:13;;;;;;;4.43;1.30;;;20.50;99.90;;;;;;4936833;28;20630;-65
2021/10/21 12:34:39;;;;;;;4.47;1.20;;;20.00;99.90;;;;;;4947637;28;20667;-65
2021/10/21 12:37:12;;;;;;;3.37;1.10;;;19.90;99.90;;;;;;4952576;28;20680;-64
2021/10/21 12:39:38;;;;;;;2.40;1.27;;;19.70;99.90;;;;;;4954618;28;20743;-64
2021/10/21 12:42:08;;;;;;;4.23;1.20;;;18.80;99.90;;;;;;4951893;28;21030;-64
2021/10/21 12:44:36;;;;;;;5.50;1.47;;;18.00;99.90;;;;;;4952455;28;20238;-65
2021/10/21 12:47:25;;;;;;;2.73;0.83;;;17.40;99.90;;;;;;4954879;28;20642;-64
2021/10/21 12:49:58;;;;;;;4.43;1.30;;;16.90;99.90;;;;;;4949587;28;20619;-63
2021/10/21 12:52:25;;;;;;;4.97;2.03;;;16.30;99.90;;;;;;4956105;28;20634;-64
2021/10/21 12:55:05;;;;;;;3.40;1.60;;;16.00;99.90;;;;;;4952015;28;20622;-66
2021/10/21 12:57:31;;;;;;;2.40;1.20;;;16.10;99.90;;;;;;4956407;28;21160;-64
2021/10/21 12:59:59;;;;;;;5.03;1.50;;;16.00;99.90;;;;;;4953827;28;21189;-61
2021/10/21 13:02:27;;;;;;;2.93;1.30;;;15.80;99.90;;;;;;4954040;28;20187;-61